Time;durP1;ratioP1;P1;durP2;ratioP2;P2;SDS_P1;SDS_P2;PMS_P1;PMS_P2;Temp;Humidity;BMP_temperature;BMP_pressure;BME280_temperature;BME280_humidity;BME280_pressure;Samples;Min_cycle;Max_cycle;Signal;HPM_P1;HPM_P2
2021/01/29 00:00:23;;;;;;;88.47;48.70;;;;;;;0.15;100.00;97313.28;2119541;28;20216;-69
2021/01/29 00:01:25;;;;;;;81.18;47.35;;;;;;;0.15;100.00;97315.91;2120072;27;20220;-69
2021/01/29 00:02:26;;;;;;;93.70;50.97;;;;;;;0.17;100.00;97313.78;2119993;28;20299;-68
2021/01/29 00:03:28;;;;;;;91.85;51.50;;;;;;;0.17;100.00;97319.03;2111377;28;20313;-69
2021/01/29 00:04:29;;;;;;;84.28;49.47;;;;;;;0.18;100.00;97320.63;2111501;28;20224;-69
2021/01/29 00:05:35;;;;;;;86.63;51.80;;;;;;;0.15;100.00;97324.56;2111429;28;20224;-69
2021/01/29 00:06:36;;;;;;;84.85;48.67;;;;;;;0.24;100.00;97330.00;2119857;28;20619;-69
2021/01/29 00:07:37;;;;;;;81.18;47.95;;;;;;;0.23;100.00;97331.06;2119277;28;20248;-69
2021/01/29 00:08:39;;;;;;;83.05;49.92;;;;;;;0.24;100.00;97333.41;2119385;28;20235;-69
2021/01/29 00:09:39;;;;;;;77.40;45.85;;;;;;;0.32;100.00;97341.78;2120624;27;20216;-69
2021/01/29 00:10:42;;;;;;;77.93;46.47;;;;;;;0.36;100.00;97342.81;2120410;27;20220;-67
2021/01/29 00:11:42;;;;;;;73.43;44.88;;;;;;;0.34;100.00;97340.44;2120498;27;20220;-68
2021/01/29 00:12:44;;;;;;;75.70;47.17;;;;;;;0.22;100.00;97332.13;2120612;27;20227;-70
2021/01/29 00:13:45;;;;;;;76.47;44.38;;;;;;;0.32;100.00;97337.31;2120545;27;20353;-69
2021/01/29 00:14:46;;;;;;;70.15;44.05;;;;;;;0.28;100.00;97333.69;2120500;27;20215;-69
2021/01/29 00:15:47;;;;;;;71.43;42.67;;;;;;;0.33;100.00;97340.72;2119255;28;20223;-69
2021/01/29 00:16:48;;;;;;;69.72;44.78;;;;;;;0.19;100.00;97317.72;2119803;28;20310;-69
2021/01/29 00:17:49;;;;;;;71.87;43.17;;;;;;;0.33;100.00;97332.84;2120454;27;20216;-69
2021/01/29 00:18:50;;;;;;;89.43;51.28;;;;;;;0.32;100.00;97336.53;2120490;27;20226;-69
2021/01/29 00:19:52;;;;;;;70.47;45.00;;;;;;;0.35;100.00;97336.78;2117338;27;20216;-69
2021/01/29 00:20:53;;;;;;;62.92;44.13;;;;;;;0.34;100.00;97335.19;2107935;27;20270;-69
2021/01/29 00:21:54;;;;;;;70.03;45.50;;;;;;;0.30;100.00;97339.44;2106297;28;20247;-69
2021/01/29 00:22:56;;;;;;;64.07;44.13;;;;;;;0.28;100.00;97329.22;2105051;28;20229;-69
2021/01/29 00:23:57;;;;;;;61.50;42.65;;;;;;;0.31;100.00;97333.13;2097725;28;20376;-70
2021/01/29 00:24:59;;;;;;;71.75;46.33;;;;;;;0.27;100.00;97337.34;2105670;28;20217;-69
2021/01/29 00:26:01;;;;;;;59.85;42.00;;;;;;;0.33;100.00;97328.38;2105271;28;20221;-69
2021/01/29 00:27:02;;;;;;;64.00;41.67;;;;;;;0.30;100.00;97328.16;2097256;28;20274;-70
2021/01/29 00:28:04;;;;;;;63.53;40.60;;;;;;;0.31;100.00;97322.63;2097166;28;20218;-69
2021/01/29 00:29:05;;;;;;;66.13;41.72;;;;;;;0.29;100.00;97322.13;2105748;28;20221;-69
2021/01/29 00:30:08;;;;;;;61.30;40.30;;;;;;;0.26;100.00;97312.16;2105575;28;20228;-70
2021/01/29 00:31:09;;;;;;;66.78;41.67;;;;;;;0.29;100.00;97316.88;2097535;28;20230;-69
2021/01/29 00:32:10;;;;;;;67.63;41.00;;;;;;;0.30;100.00;97313.19;2105584;28;20294;-70
2021/01/29 00:33:19;;;;;;;61.27;41.27;;;;;;;0.34;100.00;97318.66;2106310;28;20270;-69
2021/01/29 00:34:20;;;;;;;58.85;40.58;;;;;;;0.31;100.00;97309.53;2105594;28;20223;-69
2021/01/29 00:35:23;;;;;;;58.73;41.43;;;;;;;0.28;100.00;97310.06;2105459;28;20226;-69
2021/01/29 00:36:23;;;;;;;60.50;41.40;;;;;;;0.35;100.00;97310.56;2098531;28;20305;-69
2021/01/29 00:37:25;;;;;;;63.43;43.53;;;;;;;0.36;100.00;97306.88;2105483;28;20225;-69
2021/01/29 00:38:25;;;;;;;59.17;42.17;;;;;;;0.39;100.00;97308.94;2106261;28;20763;-69
2021/01/29 00:39:27;;;;;;;61.80;43.73;;;;;;;0.37;100.00;97305.03;2106305;28;20642;-69
2021/01/29 00:40:28;;;;;;;56.17;39.38;;;;;;;0.34;100.00;97308.97;2106265;28;20304;-69
2021/01/29 00:41:30;;;;;;;50.58;37.83;;;;;;;0.43;100.00;97298.66;2106291;28;20668;-69
2021/01/29 00:42:31;;;;;;;61.22;40.05;;;;;;;0.35;100.00;97300.06;2105396;28;20221;-69
2021/01/29 00:43:33;;;;;;;56.42;40.80;;;;;;;0.33;100.00;97296.91;2105658;28;20221;-69
2021/01/29 00:44:33;;;;;;;57.92;40.08;;;;;;;0.41;100.00;97304.19;2106255;28;20244;-69
2021/01/29 00:45:37;;;;;;;55.10;40.20;;;;;;;0.39;100.00;97311.56;2106165;28;20243;-69
2021/01/29 00:46:38;;;;;;;52.25;39.08;;;;;;;0.40;100.00;97302.63;2113419;28;20305;-69
2021/01/29 00:47:40;;;;;;;57.70;39.30;;;;;;;0.44;100.00;97316.78;2105440;28;20225;-69
2021/01/29 00:48:41;;;;;;;54.65;39.97;;;;;;;0.44;100.00;97310.75;2105474;28;20245;-69
2021/01/29 00:49:42;;;;;;;56.90;38.73;;;;;;;0.43;100.00;97306.53;2105026;28;20261;-69
2021/01/29 00:50:43;;;;;;;56.10;39.10;;;;;;;0.35;100.00;97296.63;2105099;28;20697;-69
2021/01/29 00:51:44;;;;;;;54.20;37.73;;;;;;;0.47;100.00;97303.13;2098083;28;20560;-69
2021/01/29 00:52:46;;;;;;;55.08;39.65;;;;;;;0.39;100.00;97301.06;2105228;28;20217;-69
2021/01/29 00:53:47;;;;;;;54.30;40.13;;;;;;;0.31;100.00;97306.91;2104946;28;20221;-69
2021/01/29 00:54:59;;;;;;;51.55;37.72;;;;;;;0.43;100.00;97302.06;2098103;28;20703;-69
2021/01/29 00:56:01;;;;;;;60.28;38.72;;;;;;;0.44;100.00;97311.53;2097239;28;20222;-69
2021/01/29 00:57:12;;;;;;;51.63;37.85;;;;;;;0.40;100.00;97305.25;2113383;28;20748;-69
2021/01/29 00:58:15;;;;;;;51.95;38.58;;;;;;;0.33;100.00;97296.91;2105725;28;20221;-68
2021/01/29 00:59:34;;;;;;;53.92;37.88;;;;;;;0.43;100.00;97307.31;2113812;28;20221;-69
2021/01/29 01:00:48;;;;;;;53.95;40.13;;;;;;;0.42;100.00;97304.97;2114220;27;20227;-68
2021/01/29 01:01:55;;;;;;;53.22;38.60;;;;;;;0.37;100.00;97291.91;2113393;28;20216;-68
2021/01/29 01:02:56;;;;;;;51.47;38.40;;;;;;;0.38;100.00;97293.47;2113846;28;20736;-69
2021/01/29 01:03:57;;;;;;;55.30;40.45;;;;;;;0.44;100.00;97287.94;2114585;27;20220;-69
2021/01/29 01:05:00;;;;;;;51.65;39.60;;;;;;;0.37;100.00;97287.44;2113815;28;20287;-69
2021/01/29 01:06:01;;;;;;;54.53;38.95;;;;;;;0.45;100.00;97294.75;2105097;28;20764;-69
2021/01/29 01:07:27;;;;;;;51.95;37.00;;;;;;;0.46;100.00;97291.06;2113091;28;20718;-69
2021/01/29 01:08:48;;;;;;;51.70;36.85;;;;;;;0.45;100.00;97289.50;2113266;28;20228;-70
2021/01/29 01:10:00;;;;;;;53.97;37.17;;;;;;;0.44;100.00;97316.78;2112217;28;20278;-69
2021/01/29 01:11:21;;;;;;;56.20;36.25;;;;;;;0.43;100.00;97304.69;2113450;28;20578;-69
2021/01/29 01:12:42;;;;;;;58.17;36.15;;;;;;;0.42;100.00;97303.13;2104619;28;20641;-69
2021/01/29 01:13:47;;;;;;;52.08;36.13;;;;;;;0.48;100.00;97309.94;2097568;28;20268;-68
2021/01/29 01:15:20;;;;;;;51.28;35.50;;;;;;;0.47;100.00;97316.22;2072802;28;20232;-68
2021/01/29 01:16:22;;;;;;;48.70;35.92;;;;;;;0.50;100.00;97315.69;2077529;28;20232;-69
2021/01/29 01:17:25;;;;;;;55.80;38.33;;;;;;;0.55;100.00;97309.63;2098088;28;20228;-68
2021/01/29 01:18:56;;;;;;;54.42;35.95;;;;;;;0.53;100.00;97307.28;2100083;28;20668;-68
2021/01/29 01:20:18;;;;;;;52.72;36.20;;;;;;;0.48;100.00;97304.69;2113265;28;20721;-68
2021/01/29 01:21:19;;;;;;;52.60;35.63;;;;;;;0.45;100.00;97299.19;2105465;28;20679;-68
2021/01/29 01:22:28;;;;;;;62.58;39.53;;;;;;;0.44;100.00;97303.66;2105763;28;20233;-68
2021/01/29 01:23:53;;;;;;;53.33;37.45;;;;;;;0.47;100.00;97303.13;2099356;28;20225;-68
2021/01/29 01:24:54;;;;;;;57.08;37.25;;;;;;;0.51;100.00;97298.88;2104871;28;20561;-68
2021/01/29 01:25:56;;;;;;;56.35;38.63;;;;;;;0.49;100.00;97302.84;2096741;28;20238;-68
2021/01/29 01:27:18;;;;;;;57.03;38.90;;;;;;;0.43;100.00;97312.56;2112700;28;20667;-69
2021/01/29 01:28:39;;;;;;;59.03;38.25;;;;;;;0.46;100.00;97303.41;2113707;28;20232;-69
2021/01/29 01:29:49;;;;;;;58.65;38.10;;;;;;;0.47;100.00;97303.13;2113391;28;20213;-68
2021/01/29 01:30:50;;;;;;;57.60;39.20;;;;;;;0.46;100.00;97306.00;2113527;28;20219;-68
2021/01/29 01:31:54;;;;;;;56.10;39.38;;;;;;;0.49;100.00;97311.50;2103606;28;20217;-68
2021/01/29 01:33:19;;;;;;;59.53;38.75;;;;;;;0.47;100.00;97316.22;2104888;28;20251;-68
2021/01/29 01:34:38;;;;;;;55.15;39.83;;;;;;;0.45;100.00;97328.84;2104402;28;20221;-68
2021/01/29 01:35:49;;;;;;;58.83;38.28;;;;;;;0.47;100.00;97328.56;2097846;28;20218;-68
2021/01/29 01:36:51;;;;;;;59.53;40.67;;;;;;;0.46;100.00;97317.28;2105082;28;20217;-68
2021/01/29 01:38:15;;;;;;;58.03;39.10;;;;;;;0.44;100.00;97308.13;2095707;28;20692;-68
2021/01/29 01:39:24;;;;;;;60.22;41.05;;;;;;;0.41;100.00;97321.78;2104456;28;20375;-68
2021/01/29 01:40:34;;;;;;;59.90;40.13;;;;;;;0.45;100.00;97326.22;2105098;28;20245;-68
2021/01/29 01:41:35;;;;;;;64.25;41.92;;;;;;;0.36;100.00;97314.75;2104997;28;20588;-68
2021/01/29 01:42:37;;;;;;;56.13;39.60;;;;;;;0.42;100.00;97336.47;2096749;28;20293;-67
2021/01/29 01:43:38;;;;;;;61.30;41.58;;;;;;;0.45;100.00;97328.06;2113108;28;20224;-68
2021/01/29 01:44:58;;;;;;;58.45;41.28;;;;;;;0.35;100.00;97328.91;2104868;28;20296;-67
2021/01/29 01:46:10;;;;;;;66.50;41.08;;;;;;;0.41;100.00;97330.44;2106235;28;20249;-68
2021/01/29 01:47:21;;;;;;;65.38;41.65;;;;;;;0.42;100.00;97329.38;2104908;28;20255;-67
2021/01/29 01:48:50;;;;;;;66.20;43.38;;;;;;;0.42;100.00;97329.38;2112915;28;20695;-67
2021/01/29 01:50:14;;;;;;;63.60;42.25;;;;;;;0.32;100.00;97329.44;2106406;27;20308;-68
2021/01/29 01:51:22;;;;;;;64.95;43.03;;;;;;;0.35;100.00;97339.41;2105648;28;20221;-68
2021/01/29 01:52:26;;;;;;;61.22;41.25;;;;;;;0.36;100.00;97330.47;2105249;28;20733;-68
2021/01/29 01:53:48;;;;;;;63.15;41.63;;;;;;;0.40;100.00;97331.50;2112814;28;20299;-68
2021/01/29 01:55:00;;;;;;;66.78;42.25;;;;;;;0.40;100.00;97328.09;2105640;28;20726;-68
2021/01/29 01:56:07;;;;;;;65.45;42.53;;;;;;;0.48;100.00;97332.75;2104974;28;20217;-68
2021/01/29 01:57:29;;;;;;;72.05;43.97;;;;;;;0.42;100.00;97332.00;2105147;28;20225;-67
2021/01/29 01:58:53;;;;;;;67.00;42.08;;;;;;;0.43;100.00;97332.78;2104805;28;20240;-68
2021/01/29 02:00:16;;;;;;;62.92;41.55;;;;;;;0.42;100.00;97320.72;2105533;28;20229;-68
2021/01/29 02:01:28;;;;;;;63.08;41.58;;;;;;;0.39;100.00;97322.06;2098270;28;20225;-67
2021/01/29 02:02:52;;;;;;;69.03;43.08;;;;;;;0.39;100.00;97316.81;2104416;28;20236;-68
2021/01/29 02:04:34;;;;;;;66.75;42.45;;;;;;;0.43;100.00;97327.53;2082881;27;20240;-68
2021/01/29 02:06:14;;;;;;;69.53;43.58;;;;;;;0.38;100.00;97320.50;2077053;28;20820;-67
2021/01/29 02:07:30;;;;;;;70.53;43.13;;;;;;;0.42;100.00;97328.59;2112639;28;20220;-68
2021/01/29 02:08:51;;;;;;;67.82;43.50;;;;;;;0.45;100.00;97315.72;2112864;28;20216;-68
2021/01/29 02:09:52;;;;;;;67.53;43.90;;;;;;;0.38;100.00;97310.00;2111242;27;20686;-69
2021/01/29 02:10:53;;;;;;;70.50;45.73;;;;;;;0.42;100.00;97324.13;2113703;28;20676;-69
2021/01/29 02:12:04;;;;;;;72.28;43.92;;;;;;;0.44;100.00;97326.50;2113155;28;20462;-68
2021/01/29 02:13:26;;;;;;;63.80;42.42;;;;;;;0.40;100.00;97314.97;2103399;28;20307;-68
2021/01/29 02:14:47;;;;;;;73.10;45.85;;;;;;;0.44;100.00;97323.88;2112585;28;20226;-69
2021/01/29 02:16:04;;;;;;;72.07;44.78;;;;;;;0.40;100.00;97323.63;2104438;28;20226;-69
2021/01/29 02:17:11;;;;;;;73.70;44.17;;;;;;;0.32;100.00;97312.91;2104933;28;20221;-69
2021/01/29 02:19:13;;;;;;;76.13;44.10;;;;;;;0.36;100.00;97324.44;2099677;28;20290;-69
2021/01/29 02:20:42;;;;;;;70.97;43.03;;;;;;;0.35;100.00;97325.47;2111396;28;20721;-69
2021/01/29 02:22:43;;;;;;;79.10;45.10;;;;;;;0.36;100.00;97329.69;2108014;28;20294;-69
2021/01/29 02:24:48;;;;;;;73.28;43.47;;;;;;;0.42;100.00;97333.84;2087295;28;20232;-68
2021/01/29 02:26:17;;;;;;;73.55;43.60;;;;;;;0.33;100.00;97338.88;2070809;28;20297;-69
2021/01/29 02:27:40;;;;;;;72.95;43.30;;;;;;;0.31;100.00;97341.00;2098699;28;20226;-69
2021/01/29 02:29:11;;;;;;;73.18;44.85;;;;;;;0.40;100.00;97344.59;2107123;28;20228;-69
2021/01/29 02:30:57;;;;;;;65.72;42.67;;;;;;;0.43;100.00;97343.28;2089219;28;20227;-69
2021/01/29 02:32:33;;;;;;;74.05;43.63;;;;;;;0.34;100.00;97348.31;2109051;28;20221;-68
2021/01/29 02:34:08;;;;;;;74.40;42.70;;;;;;;0.36;100.00;97348.84;2101606;28;20237;-68
2021/01/29 02:35:53;;;;;;;76.63;43.95;;;;;;;0.35;100.00;97352.53;2109405;28;20270;-69
2021/01/29 02:37:34;;;;;;;69.22;41.85;;;;;;;0.40;100.00;97341.19;2108585;28;20224;-69
2021/01/29 02:39:22;;;;;;;68.75;42.13;;;;;;;0.28;100.00;97341.53;2102197;28;20227;-70
2021/01/29 02:40:26;;;;;;;74.18;45.25;;;;;;;0.22;100.00;97335.53;2110666;28;20754;-69
2021/01/29 02:41:50;;;;;;;74.13;44.88;;;;;;;0.24;100.00;97330.78;2112798;28;20291;-69
2021/01/29 02:43:06;;;;;;;68.82;44.05;;;;;;;0.29;100.00;97337.88;2099547;28;20218;-69
2021/01/29 02:44:56;;;;;;;77.43;44.92;;;;;;;0.26;100.00;97338.38;2112715;28;20295;-69
2021/01/29 02:46:27;;;;;;;73.18;44.92;;;;;;;0.25;100.00;97342.84;2113040;28;20236;-70
2021/01/29 02:47:38;;;;;;;72.47;45.47;;;;;;;0.17;100.00;97329.53;2112760;28;20216;-69
2021/01/29 02:49:04;;;;;;;67.43;45.72;;;;;;;0.17;100.00;97334.78;2078704;28;20690;-70
2021/01/29 02:50:25;;;;;;;72.50;47.15;;;;;;;0.17;100.00;97340.78;2105757;27;20225;-69
2021/01/29 02:51:50;;;;;;;68.97;47.40;;;;;;;0.15;100.00;97348.16;2105833;27;20570;-69
2021/01/29 02:53:20;;;;;;;77.93;46.58;;;;;;;0.09;100.00;97348.44;2105759;27;20248;-70
2021/01/29 02:54:51;;;;;;;81.70;48.20;;;;;;;0.11;100.00;97359.47;2098630;28;20720;-69
2021/01/29 02:56:18;;;;;;;74.60;47.58;;;;;;;0.03;100.00;97365.28;2113072;27;20773;-70
2021/01/29 02:57:46;;;;;;;76.25;45.95;;;;;;;-0.01;100.00;97334.34;2105817;28;20279;-70
2021/01/29 02:59:15;;;;;;;70.20;44.97;;;;;;;0.20;100.00;97363.09;2112735;27;20682;-69
2021/01/29 03:00:37;;;;;;;69.30;44.75;;;;;;;0.17;100.00;97356.53;2113432;28;20225;-70
2021/01/29 03:01:51;;;;;;;70.55;43.63;;;;;;;0.19;100.00;97351.81;2112592;28;20246;-69
2021/01/29 03:03:15;;;;;;;77.07;49.15;;;;;;;0.21;100.00;97357.56;2112661;27;20217;-69
2021/01/29 03:04:29;;;;;;;69.97;48.05;;;;;;;0.20;100.00;97370.97;2110977;28;20227;-69
2021/01/29 03:05:39;;;;;;;71.35;49.28;;;;;;;0.16;100.00;97364.66;2097489;28;20357;-70
2021/01/29 03:06:46;;;;;;;64.30;46.55;;;;;;;0.21;100.00;97369.91;2104333;28;20347;-69
2021/01/29 03:07:52;;;;;;;65.53;47.38;;;;;;;0.25;100.00;97373.53;2105085;28;20671;-69
2021/01/29 03:09:17;;;;;;;59.65;42.33;;;;;;;0.24;100.00;97356.25;2087883;28;20655;-69
2021/01/29 03:10:42;;;;;;;64.07;43.10;;;;;;;0.26;100.00;97359.38;2087975;28;20222;-70
2021/01/29 03:12:06;;;;;;;62.92;43.78;;;;;;;0.24;100.00;97356.25;2088388;28;20222;-69
2021/01/29 03:13:29;;;;;;;66.70;43.50;;;;;;;0.22;100.00;97368.84;2088090;28;20226;-69
2021/01/29 03:14:54;;;;;;;63.70;43.03;;;;;;;0.23;100.00;97355.44;2088712;28;20222;-70
2021/01/29 03:16:36;;;;;;;54.78;40.08;;;;;;;0.18;100.00;97373.06;2078563;28;20222;-69
2021/01/29 03:17:58;;;;;;;55.45;40.17;;;;;;;0.22;100.00;97377.50;2078918;28;20230;-70
2021/01/29 03:19:24;;;;;;;49.47;39.00;;;;;;;0.28;100.00;97389.53;2079173;28;20215;-69
2021/01/29 03:20:50;;;;;;;57.97;40.30;;;;;;;0.36;100.00;97396.06;2062266;28;20225;-69
2021/01/29 03:22:13;;;;;;;53.72;39.65;;;;;;;0.25;100.00;97381.41;2083681;28;20233;-69
2021/01/29 03:23:44;;;;;;;50.58;39.22;;;;;;;0.20;100.00;97389.31;2086914;28;20279;-70
2021/01/29 03:25:09;;;;;;;46.08;36.75;;;;;;;0.15;100.00;97387.47;2088356;28;20219;-70
2021/01/29 03:26:33;;;;;;;47.45;35.17;;;;;;;0.28;100.00;97407.13;2095232;28;20222;-69
2021/01/29 03:27:57;;;;;;;44.97;33.65;;;;;;;0.16;100.00;97407.41;2096097;28;20226;-70
2021/01/29 03:29:40;;;;;;;46.00;34.28;;;;;;;0.14;100.00;97406.13;2085028;28;20273;-69
2021/01/29 03:31:01;;;;;;;50.20;35.30;;;;;;;0.07;100.00;97405.63;2087054;28;20693;-69
2021/01/29 03:32:22;;;;;;;48.03;33.83;;;;;;;0.04;100.00;97404.31;2086808;28;20221;-69
2021/01/29 03:33:43;;;;;;;51.60;36.50;;;;;;;0.04;100.00;97420.06;2096220;28;20229;-69
2021/01/29 03:35:08;;;;;;;49.85;38.22;;;;;;;0.01;100.00;97417.19;2096561;28;20222;-69
2021/01/29 03:36:43;;;;;;;54.33;40.20;;;;;;;-0.07;100.00;97408.81;2078489;28;20310;-69
2021/01/29 03:38:09;;;;;;;52.42;38.20;;;;;;;-0.06;100.00;97409.59;2083649;28;20219;-69
2021/01/29 03:39:32;;;;;;;51.33;38.25;;;;;;;-0.08;100.00;97401.22;2087868;28;20218;-70
2021/01/29 03:40:56;;;;;;;53.83;38.83;;;;;;;-0.11;100.00;97404.38;2088387;28;20230;-69
2021/01/29 03:42:35;;;;;;;51.22;37.38;;;;;;;-0.28;100.00;97391.56;2095024;28;20226;-71
2021/01/29 03:44:00;;;;;;;54.40;39.00;;;;;;;-0.19;100.00;97404.91;2089428;28;20227;-69
2021/01/29 03:45:25;;;;;;;56.60;36.97;;;;;;;-0.32;100.00;97406.28;2096188;28;20320;-69
2021/01/29 03:46:50;;;;;;;55.05;37.40;;;;;;;-0.36;100.00;97411.25;2096118;28;20218;-70
2021/01/29 03:48:33;;;;;;;51.55;38.78;;;;;;;-0.31;100.00;97419.09;2096242;28;20256;-70
2021/01/29 03:50:07;;;;;;;52.53;38.47;;;;;;;-0.27;100.00;97421.97;2087546;28;20323;-70
2021/01/29 03:51:34;;;;;;;54.95;39.58;;;;;;;-0.33;100.00;97418.59;2094963;28;20234;-69
2021/01/29 03:53:03;;;;;;;54.58;41.22;;;;;;;-0.29;100.00;97424.06;2095984;28;20226;-70
2021/01/29 03:54:27;;;;;;;53.63;39.60;;;;;;;-0.37;100.00;97425.41;2087796;28;20227;-71
2021/01/29 03:55:48;;;;;;;56.58;37.47;;;;;;;-0.31;100.00;97432.22;2089568;28;20670;-70
2021/01/29 03:57:19;;;;;;;50.85;37.17;;;;;;;-0.32;100.00;97435.09;2091399;28;20223;-69
2021/01/29 03:58:57;;;;;;;50.92;37.45;;;;;;;-0.32;100.00;97430.63;2088057;28;20222;-70
2021/01/29 04:00:21;;;;;;;56.63;39.28;;;;;;;-0.35;100.00;97440.84;2090480;28;20652;-69
2021/01/29 04:01:50;;;;;;;55.97;39.42;;;;;;;-0.35;100.00;97439.03;2078000;28;20231;-69
2021/01/29 04:03:17;;;;;;;53.45;38.22;;;;;;;-0.40;100.00;97436.41;2097574;28;20229;-69
2021/01/29 04:04:49;;;;;;;53.90;37.05;;;;;;;-0.35;100.00;97436.41;2088366;28;20228;-69
2021/01/29 04:06:11;;;;;;;56.00;40.67;;;;;;;-0.29;100.00;97442.41;2097605;28;20230;-69
2021/01/29 04:07:36;;;;;;;53.17;37.38;;;;;;;-0.23;100.00;97435.34;2098069;28;20615;-69
2021/01/29 04:09:10;;;;;;;52.08;37.72;;;;;;;-0.21;100.00;97443.72;2105977;28;20229;-70
2021/01/29 04:10:31;;;;;;;52.03;36.67;;;;;;;-0.29;100.00;97443.19;2097711;28;20222;-69
2021/01/29 04:12:05;;;;;;;57.28;36.88;;;;;;;-0.29;100.00;97452.91;2088282;28;20277;-69
2021/01/29 04:13:31;;;;;;;56.83;36.92;;;;;;;-0.26;100.00;97447.16;2097042;28;20222;-69
2021/01/29 04:14:42;;;;;;;51.25;37.10;;;;;;;-0.29;100.00;97447.66;2097291;28;20222;-69
2021/01/29 04:15:46;;;;;;;58.65;36.92;;;;;;;-0.35;100.00;97441.66;2097463;28;20221;-69
2021/01/29 04:16:48;;;;;;;50.90;36.75;;;;;;;-0.23;100.00;97446.59;2097369;28;20242;-70
2021/01/29 04:17:52;;;;;;;50.90;35.72;;;;;;;-0.28;100.00;97444.78;2105863;28;20238;-69
2021/01/29 04:18:56;;;;;;;50.60;34.80;;;;;;;-0.31;100.00;97445.31;2105566;28;20247;-69
2021/01/29 04:20:00;;;;;;;49.40;37.33;;;;;;;-0.35;100.00;97438.22;2105789;28;20308;-69
2021/01/29 04:21:05;;;;;;;47.95;35.55;;;;;;;-0.33;100.00;97449.25;2105557;28;20683;-70
2021/01/29 04:22:11;;;;;;;47.15;34.63;;;;;;;-0.31;100.00;97440.06;2105818;28;20220;-69
2021/01/29 04:23:19;;;;;;;55.88;36.13;;;;;;;-0.31;100.00;97439.28;2106056;28;20229;-69
2021/01/29 04:24:22;;;;;;;50.65;34.67;;;;;;;-0.28;100.00;97449.22;2097336;28;20230;-68
2021/01/29 04:25:26;;;;;;;54.03;37.33;;;;;;;-0.34;100.00;97439.81;2090730;28;20257;-69
2021/01/29 04:26:29;;;;;;;50.47;37.15;;;;;;;-0.28;100.00;97447.38;2097357;28;20245;-67
2021/01/29 04:27:33;;;;;;;53.85;39.78;;;;;;;-0.30;100.00;97452.13;2097447;28;20301;-67
2021/01/29 04:28:40;;;;;;;54.95;39.10;;;;;;;-0.21;100.00;97460.22;2097099;28;20218;-68
2021/01/29 04:29:46;;;;;;;51.90;36.83;;;;;;;-0.33;100.00;97450.03;2098228;28;20213;-68
2021/01/29 04:30:51;;;;;;;53.88;37.97;;;;;;;-0.29;100.00;97458.94;2089846;28;20297;-70
2021/01/29 04:31:56;;;;;;;53.33;36.95;;;;;;;-0.36;100.00;97453.16;2097167;28;20225;-67
2021/01/29 04:33:02;;;;;;;49.70;36.55;;;;;;;-0.31;100.00;97455.00;2097672;28;20259;-69
2021/01/29 04:34:07;;;;;;;52.65;37.83;;;;;;;-0.36;100.00;97442.69;2098137;28;20226;-67
2021/01/29 04:35:09;;;;;;;50.33;37.53;;;;;;;-0.37;100.00;97451.59;2097532;28;20228;-67
2021/01/29 04:36:14;;;;;;;54.33;36.08;;;;;;;-0.41;100.00;97458.44;2098056;28;20230;-67
2021/01/29 04:37:17;;;;;;;46.83;34.40;;;;;;;-0.39;100.00;97450.31;2097047;28;20222;-68
2021/01/29 04:38:23;;;;;;;49.00;34.97;;;;;;;-0.28;100.00;97460.50;2089243;28;20215;-67
2021/01/29 04:39:26;;;;;;;48.58;34.40;;;;;;;-0.26;100.00;97470.72;2096926;28;20226;-67
2021/01/29 04:40:30;;;;;;;44.00;32.97;;;;;;;-0.25;100.00;97469.69;2097939;28;20234;-67
2021/01/29 04:41:39;;;;;;;39.35;31.77;;;;;;;-0.25;100.00;97474.91;2097850;28;20225;-68
2021/01/29 04:42:54;;;;;;;41.80;32.00;;;;;;;-0.25;100.00;97467.06;2098375;28;20392;-67
2021/01/29 04:44:03;;;;;;;41.40;31.52;;;;;;;-0.31;100.00;97471.50;2096897;28;20286;-67
2021/01/29 04:45:26;;;;;;;41.85;31.15;;;;;;;-0.35;100.00;97461.81;2097046;28;20245;-67
2021/01/29 04:46:43;;;;;;;40.65;30.80;;;;;;;-0.40;100.00;97461.84;2092555;28;20279;-68
2021/01/29 04:47:47;;;;;;;40.90;29.00;;;;;;;-0.34;100.00;97458.16;2090348;28;20370;-67
2021/01/29 04:48:51;;;;;;;33.50;27.92;;;;;;;-0.40;100.00;97454.75;2097124;28;20614;-67
2021/01/29 04:50:16;;;;;;;34.08;27.73;;;;;;;-0.34;100.00;97463.41;2097425;28;20628;-68
2021/01/29 04:51:56;;;;;;;35.28;28.80;;;;;;;-0.44;100.00;97452.91;2096123;28;20214;-68
2021/01/29 04:53:25;;;;;;;28.88;25.70;;;;;;;-0.43;100.00;97462.38;2098202;28;20294;-68
2021/01/29 04:54:41;;;;;;;33.08;25.90;;;;;;;-0.43;100.00;97460.53;2097093;28;20257;-68
2021/01/29 04:56:10;;;;;;;37.85;26.58;;;;;;;-0.45;100.00;97460.00;2096642;28;20680;-67
2021/01/29 04:57:41;;;;;;;30.27;25.17;;;;;;;-0.42;100.00;97459.47;2098172;28;20669;-69
2021/01/29 04:58:52;;;;;;;29.38;25.90;;;;;;;-0.50;100.00;97460.00;2096310;28;20230;-68
2021/01/29 05:00:44;;;;;;;31.88;26.15;;;;;;;-0.49;100.00;97466.03;2096765;28;20230;-67
2021/01/29 05:02:19;;;;;;;30.30;27.02;;;;;;;-0.54;100.00;97466.03;2096517;28;20222;-67
2021/01/29 05:04:02;;;;;;;31.40;26.67;;;;;;;-0.55;100.00;97469.69;2096736;28;20716;-67
2021/01/29 05:05:47;;;;;;;30.95;25.95;;;;;;;-0.54;100.00;97466.81;2105318;28;20663;-67
2021/01/29 05:07:22;;;;;;;29.02;25.23;;;;;;;-0.63;100.00;97471.78;2097974;28;20722;-67
2021/01/29 05:09:10;;;;;;;30.77;25.88;;;;;;;-0.63;100.00;97466.56;2085352;28;20589;-68
2021/01/29 05:10:50;;;;;;;29.60;25.48;;;;;;;-0.71;100.00;97451.38;2098077;28;20313;-68
2021/01/29 05:12:05;;;;;;;31.90;25.65;;;;;;;-0.65;100.00;97460.00;2105755;28;20224;-68
2021/01/29 05:13:16;;;;;;;28.83;25.52;;;;;;;-0.62;100.00;97465.50;2097528;28;20578;-68
2021/01/29 05:14:50;;;;;;;30.10;24.92;;;;;;;-0.63;100.00;97469.19;2105048;28;20217;-68
2021/01/29 05:16:12;;;;;;;30.67;26.02;;;;;;;-0.72;100.00;97455.03;2098316;28;20228;-68
2021/01/29 05:17:48;;;;;;;29.95;26.55;;;;;;;-0.83;100.00;97456.09;2098181;27;20297;-68
2021/01/29 05:19:32;;;;;;;27.98;24.92;;;;;;;-0.85;100.00;97458.19;2097207;28;20225;-68
2021/01/29 05:20:49;;;;;;;27.77;24.75;;;;;;;-0.95;100.00;97455.56;2104525;28;20225;-68
2021/01/29 05:22:20;;;;;;;26.75;23.80;;;;;;;-1.01;100.00;97457.38;2103153;27;20224;-68
2021/01/29 05:23:39;;;;;;;24.55;21.98;;;;;;;-1.03;100.00;97453.47;2096338;28;20744;-69
2021/01/29 05:25:06;;;;;;;25.15;22.45;;;;;;;-1.02;100.00;97460.28;2098139;28;20595;-67
2021/01/29 05:26:29;;;;;;;26.95;22.17;;;;;;;-1.04;100.00;97457.91;2099070;27;20225;-70
2021/01/29 05:27:51;;;;;;;24.63;22.05;;;;;;;-1.09;100.00;97464.97;2097195;28;20564;-67
2021/01/29 05:29:15;;;;;;;23.92;21.38;;;;;;;-1.12;100.00;97455.81;2098957;27;20740;-69
2021/01/29 05:30:39;;;;;;;24.20;21.70;;;;;;;-1.22;100.00;97448.72;2097128;28;20240;-67
2021/01/29 05:31:50;;;;;;;23.27;21.15;;;;;;;-1.21;100.00;97460.00;2104290;28;20251;-67
2021/01/29 05:33:14;;;;;;;24.95;22.45;;;;;;;-1.18;100.00;97467.31;2105180;28;20228;-67
2021/01/29 05:34:37;;;;;;;24.33;21.63;;;;;;;-1.18;100.00;97467.31;2097910;27;20229;-67
2021/01/29 05:35:49;;;;;;;24.77;22.05;;;;;;;-1.21;100.00;97468.63;2098831;27;20221;-67
2021/01/29 05:37:04;;;;;;;23.00;20.55;;;;;;;-1.19;100.00;97473.59;2097425;28;20248;-68
2021/01/29 05:38:31;;;;;;;23.52;21.27;;;;;;;-1.19;100.00;97474.38;2098926;28;20822;-69
2021/01/29 05:39:40;;;;;;;24.95;22.40;;;;;;;-1.24;100.00;97474.34;2093541;28;20742;-67
2021/01/29 05:40:59;;;;;;;23.58;21.27;;;;;;;-1.21;100.00;97467.84;2104584;28;20792;-67
2021/01/29 05:42:08;;;;;;;23.63;21.13;;;;;;;-1.22;100.00;97472.25;2097558;28;20745;-67
2021/01/29 05:43:30;;;;;;;23.48;21.15;;;;;;;-1.33;100.00;97473.28;2097399;28;20703;-67
2021/01/29 05:45:19;;;;;;;23.27;20.95;;;;;;;-1.34;100.00;97473.56;2099419;28;20246;-68
2021/01/29 05:46:23;;;;;;;23.13;20.80;;;;;;;-1.42;100.00;97462.53;2096777;28;20256;-67
2021/01/29 05:47:45;;;;;;;23.60;21.33;;;;;;;-1.44;100.00;97463.84;2097040;28;20218;-67
2021/01/29 05:49:02;;;;;;;23.98;21.67;;;;;;;-1.49;100.00;97477.69;2091386;27;20555;-68
2021/01/29 05:50:11;;;;;;;26.92;22.35;;;;;;;-1.48;100.00;97468.00;2097047;28;20232;-67